createdAt,value
2023-01-27T00:00:51.482Z,71.32
2023-01-27T00:03:19.960Z,71.00
2023-01-27T00:05:47.556Z,71.04
2023-01-27T00:08:15.189Z,71.03
2023-01-27T00:10:42.853Z,71.31
2023-01-27T00:13:27.661Z,71.79
2023-01-27T00:15:55.802Z,71.98
2023-01-27T00:18:23.906Z,71.60
2023-01-27T00:21:10.051Z,71.66
2023-01-27T00:23:56.247Z,71.00
2023-01-27T00:26:23.510Z,71.71
2023-01-27T00:28:50.929Z,76.16
2023-01-27T00:31:37.947Z,78.73
2023-01-27T00:34:09.600Z,78.54
2023-01-27T00:36:40.940Z,78.88
2023-01-27T00:39:09.913Z,78.31
2023-01-27T00:41:37.186Z,79.39
2023-01-27T00:44:12.673Z,79.59
2023-01-27T00:46:41.520Z,79.86
2023-01-27T00:49:10.070Z,80.32
2023-01-27T00:51:37.331Z,81.19
2023-01-27T00:54:05.347Z,80.92
2023-01-27T00:56:32.472Z,79.24
2023-01-27T00:58:59.731Z,81.52
2023-01-27T01:01:27.970Z,78.78
2023-01-27T01:03:55.326Z,78.73
2023-01-27T01:06:22.544Z,74.80
2023-01-27T01:08:51.405Z,73.89
2023-01-27T01:11:20.533Z,74.30
2023-01-27T01:13:48.028Z,73.91
2023-01-27T01:16:22.838Z,80.67
2023-01-27T01:18:50.214Z,70.57
2023-01-27T01:21:17.778Z,70.64
2023-01-27T01:23:46.077Z,71.67
2023-01-27T01:26:15.250Z,72.00
2023-01-27T01:28:44.409Z,71.76
2023-01-27T01:31:18.100Z,72.01
2023-01-27T01:33:46.725Z,72.60
2023-01-27T01:36:16.611Z,72.53
2023-01-27T01:38:44.079Z,72.57
2023-01-27T01:41:18.136Z,72.42
2023-01-27T01:43:47.053Z,72.21
2023-01-27T01:46:14.512Z,71.68
2023-01-27T01:48:47.304Z,71.36
2023-01-27T01:51:43.783Z,71.52
2023-01-27T01:54:21.185Z,71.59
2023-01-27T01:57:03.454Z,70.74
2023-01-27T01:59:36.790Z,71.21
2023-01-27T02:02:07.959Z,70.61
2023-01-27T02:04:52.219Z,71.13
2023-01-27T02:07:34.546Z,71.27
2023-01-27T02:10:02.121Z,70.18
2023-01-27T02:12:30.068Z,70.38
2023-01-27T02:14:57.580Z,69.82
2023-01-27T02:17:24.670Z,70.19
2023-01-27T02:20:00.674Z,69.72
2023-01-27T02:22:43.087Z,69.59
2023-01-27T02:25:39.299Z,69.58
2023-01-27T02:28:08.439Z,70.28
2023-01-27T02:30:35.850Z,69.83
2023-01-27T02:33:11.018Z,69.76
2023-01-27T02:35:44.484Z,69.71
2023-01-27T02:38:13.870Z,71.13
2023-01-27T02:40:41.704Z,72.25
2023-01-27T02:43:09.273Z,72.39
2023-01-27T02:45:36.657Z,72.50
2023-01-27T02:48:04.144Z,74.70
2023-01-27T02:50:33.008Z,72.66
2023-01-27T02:53:00.247Z,75.07
2023-01-27T02:55:28.022Z,75.97
2023-01-27T02:57:55.224Z,76.19
2023-01-27T03:00:23.464Z,76.73
2023-01-27T03:02:53.950Z,77.33
2023-01-27T03:05:21.160Z,77.84
2023-01-27T03:07:48.823Z,78.33
2023-01-27T03:10:16.414Z,78.84
2023-01-27T03:12:44.802Z,78.93
2023-01-27T03:15:31.865Z,78.64
2023-01-27T03:18:13.421Z,78.79
2023-01-27T03:20:41.429Z,79.01
2023-01-27T03:23:09.629Z,78.74
2023-01-27T03:25:40.965Z,79.60
2023-01-27T03:28:08.899Z,79.08
2023-01-27T03:30:37.384Z,78.15
2023-01-27T03:33:06.423Z,77.19
2023-01-27T03:35:39.191Z,77.52
2023-01-27T03:38:29.583Z,76.95
2023-01-27T03:41:16.051Z,75.06
2023-01-27T03:44:01.982Z,75.29
2023-01-27T03:46:29.851Z,73.05
2023-01-27T03:48:57.039Z,71.08
2023-01-27T03:51:25.013Z,71.46
2023-01-27T03:53:53.274Z,71.55
2023-01-27T03:56:21.953Z,71.00
2023-01-27T03:58:50.410Z,70.19
2023-01-27T04:01:20.627Z,69.43
2023-01-27T04:04:07.293Z,69.15
2023-01-27T04:06:55.170Z,68.47
2023-01-27T04:09:28.708Z,69.24
2023-01-27T04:12:00.678Z,69.20
2023-01-27T04:14:35.138Z,69.03
2023-01-27T04:17:07.836Z,67.65
2023-01-27T04:19:35.232Z,68.21
2023-01-27T04:22:02.773Z,68.39
2023-01-27T04:24:30.223Z,69.16
2023-01-27T04:27:06.012Z,68.39
2023-01-27T04:29:35.247Z,68.88
2023-01-27T04:32:04.448Z,69.14
2023-01-27T04:34:32.365Z,68.89
2023-01-27T04:36:59.554Z,68.59
2023-01-27T04:39:27.029Z,68.77
2023-01-27T04:41:54.191Z,68.19
2023-01-27T04:44:21.403Z,68.61
2023-01-27T04:46:49.588Z,68.25
2023-01-27T04:49:17.323Z,68.21
2023-01-27T04:51:46.241Z,67.74
2023-01-27T04:54:15.340Z,67.31
2023-01-27T04:56:53.902Z,67.43
2023-01-27T04:59:21.299Z,67.79
2023-01-27T05:01:48.718Z,68.60
2023-01-27T05:04:15.855Z,70.30
2023-01-27T05:06:43.259Z,70.37
2023-01-27T05:09:10.313Z,70.55
2023-01-27T05:11:37.409Z,72.89
2023-01-27T05:14:04.772Z,72.43
2023-01-27T05:16:32.093Z,73.68
2023-01-27T05:18:59.226Z,74.40
2023-01-27T05:21:31.041Z,74.70
2023-01-27T05:23:58.299Z,77.24
2023-01-27T05:26:27.657Z,76.63
2023-01-27T05:28:57.514Z,76.74
2023-01-27T05:31:27.446Z,77.13
2023-01-27T05:33:56.035Z,77.48
2023-01-27T05:36:24.456Z,76.73
2023-01-27T05:38:51.834Z,76.64
2023-01-27T05:41:19.786Z,77.02
2023-01-27T05:43:48.187Z,77.90
2023-01-27T05:46:18.303Z,78.36
2023-01-27T05:48:48.440Z,79.13
2023-01-27T05:51:17.541Z,79.79
2023-01-27T05:53:45.179Z,79.77
2023-01-27T05:56:14.270Z,80.33
2023-01-27T05:58:41.760Z,80.86
2023-01-27T06:01:15.998Z,80.92
2023-01-27T06:03:44.397Z,80.58
2023-01-27T06:06:12.933Z,79.83
2023-01-27T06:08:40.117Z,79.77
2023-01-27T06:11:08.414Z,78.35
2023-01-27T06:13:36.091Z,77.81
2023-01-27T06:16:04.204Z,77.20
2023-01-27T06:18:32.016Z,76.75
2023-01-27T06:21:00.562Z,74.12
2023-01-27T06:23:28.164Z,73.81
2023-01-27T06:25:56.453Z,72.64
2023-01-27T06:28:29.149Z,72.04
2023-01-27T06:31:04.338Z,71.96
2023-01-27T06:33:31.266Z,70.82
2023-01-27T06:36:11.300Z,70.44
2023-01-27T06:38:38.610Z,71.01
2023-01-27T06:41:06.307Z,70.60
2023-01-27T06:43:33.481Z,69.94
2023-01-27T06:46:01.751Z,69.44
2023-01-27T06:48:30.125Z,69.42
2023-01-27T06:50:57.630Z,69.66
2023-01-27T06:53:25.282Z,68.88
2023-01-27T06:56:00.398Z,68.33
2023-01-27T06:58:27.775Z,69.96
2023-01-27T07:00:55.868Z,69.13
2023-01-27T07:03:23.147Z,68.27
2023-01-27T07:05:50.560Z,70.13
2023-01-27T07:08:17.961Z,68.11
2023-01-27T07:10:45.114Z,67.45
2023-01-27T07:13:13.474Z,67.31
2023-01-27T07:15:41.371Z,66.67
2023-01-27T07:18:10.262Z,67.50
2023-01-27T07:20:37.685Z,66.83
2023-01-27T07:23:05.706Z,65.34
2023-01-27T07:25:35.085Z,62.43
2023-01-27T07:28:03.050Z,61.90
2023-01-27T07:30:31.444Z,61.11
2023-01-27T07:33:06.042Z,60.97
2023-01-27T07:35:33.930Z,64.61
2023-01-27T07:38:01.785Z,60.83
2023-01-27T07:40:29.056Z,60.45
2023-01-27T07:43:00.406Z,65.46
2023-01-27T07:45:28.415Z,59.70
2023-01-27T07:48:07.133Z,61.39
2023-01-27T07:50:35.617Z,59.75
2023-01-27T07:53:04.559Z,58.52
2023-01-27T07:55:32.439Z,59.71
2023-01-27T07:58:00.116Z,59.64
2023-01-27T08:00:28.303Z,60.65
2023-01-27T08:02:57.503Z,57.86
2023-01-27T08:05:25.205Z,59.01
2023-01-27T08:07:57.704Z,59.97
2023-01-27T08:10:26.324Z,57.35
2023-01-27T08:12:53.680Z,58.61
2023-01-27T08:15:20.832Z,58.16
2023-01-27T08:17:58.424Z,58.31
2023-01-27T08:20:27.439Z,61.68
2023-01-27T08:22:55.085Z,56.80
2023-01-27T08:25:22.422Z,57.28
2023-01-27T08:27:51.187Z,57.99
2023-01-27T08:30:19.244Z,58.49
2023-01-27T08:32:46.479Z,57.52
2023-01-27T08:35:14.116Z,58.30
2023-01-27T08:37:41.526Z,55.05
2023-01-27T08:40:09.359Z,55.00
2023-01-27T08:42:36.520Z,56.22
2023-01-27T08:45:04.219Z,55.02
2023-01-27T08:47:31.312Z,55.59
2023-01-27T08:49:58.733Z,56.33
2023-01-27T08:52:27.643Z,57.70
2023-01-27T08:54:54.784Z,57.71
2023-01-27T08:57:21.844Z,56.28
2023-01-27T08:59:49.214Z,55.71
2023-01-27T09:02:16.370Z,55.31
2023-01-27T09:04:45.251Z,57.96
2023-01-27T09:07:12.735Z,56.48
2023-01-27T09:09:39.893Z,56.44
2023-01-27T09:12:07.277Z,55.74
2023-01-27T09:14:34.714Z,58.45
2023-01-27T09:17:01.804Z,55.30
2023-01-27T09:19:29.954Z,52.34
2023-01-27T09:21:57.367Z,55.77
2023-01-27T09:24:24.556Z,54.74
2023-01-27T09:26:51.858Z,53.19
2023-01-27T09:29:19.333Z,53.98
2023-01-27T09:31:46.558Z,55.54
2023-01-27T09:34:13.788Z,56.24
2023-01-27T09:36:45.195Z,58.01
2023-01-27T09:39:13.173Z,57.49
2023-01-27T09:41:46.654Z,59.90
2023-01-27T09:44:48.294Z,67.77
2023-01-27T09:47:23.319Z,61.75
2023-01-27T09:49:50.332Z,61.35
2023-01-27T09:52:23.393Z,61.25
2023-01-27T09:55:04.137Z,65.24
2023-01-27T09:57:42.699Z,64.41
2023-01-27T10:00:36.603Z,66.44
2023-01-27T10:03:20.738Z,68.23
2023-01-27T10:06:17.030Z,67.17
2023-01-27T10:09:05.125Z,69.41
2023-01-27T10:11:35.075Z,69.27
2023-01-27T10:14:27.200Z,69.54
2023-01-27T10:17:06.418Z,71.06
2023-01-27T10:19:40.607Z,71.32
2023-01-27T10:22:13.857Z,69.56
2023-01-27T10:24:50.668Z,69.68
2023-01-27T10:27:22.716Z,69.57
2023-01-27T10:29:56.287Z,68.96
2023-01-27T10:32:28.529Z,69.36
2023-01-27T10:35:10.016Z,71.02
2023-01-27T10:37:46.109Z,70.33
2023-01-27T10:40:35.690Z,72.31
2023-01-27T10:43:08.816Z,73.86
2023-01-27T10:45:48.093Z,74.00
2023-01-27T10:48:24.312Z,75.17
2023-01-27T10:50:57.775Z,73.58
2023-01-27T10:53:40.267Z,73.21
2023-01-27T10:56:09.783Z,71.39
2023-01-27T10:58:47.657Z,72.77
2023-01-27T11:01:21.313Z,73.79
2023-01-27T11:04:02.763Z,72.85
2023-01-27T11:06:35.430Z,73.75
2023-01-27T11:09:08.122Z,72.68
2023-01-27T11:11:44.604Z,72.57
2023-01-27T11:14:24.819Z,71.91
2023-01-27T11:16:56.126Z,72.44
2023-01-27T11:19:33.307Z,74.60
2023-01-27T11:22:08.105Z,76.17
2023-01-27T11:24:46.132Z,77.43
2023-01-27T11:27:27.560Z,77.18
2023-01-27T11:29:59.562Z,77.03
2023-01-27T11:32:36.107Z,76.32
2023-01-27T11:35:09.810Z,79.47
2023-01-27T11:37:48.308Z,79.02
2023-01-27T11:40:34.691Z,79.51
2023-01-27T11:43:02.742Z,79.45
2023-01-27T11:45:35.762Z,81.33
2023-01-27T11:48:07.170Z,81.80
2023-01-27T11:50:36.332Z,82.31
2023-01-27T11:53:25.535Z,83.91
2023-01-27T11:56:02.496Z,84.38
2023-01-27T11:58:34.517Z,83.86
2023-01-27T12:01:05.920Z,84.18
2023-01-27T12:03:51.278Z,84.14
2023-01-27T12:06:29.231Z,84.77
2023-01-27T12:08:56.670Z,83.79
2023-01-27T12:11:26.045Z,84.09
2023-01-27T12:14:01.382Z,83.57
2023-01-27T12:16:50.893Z,85.16
2023-01-27T12:19:27.985Z,84.38
2023-01-27T12:22:01.918Z,85.00
2023-01-27T12:24:35.281Z,85.68
2023-01-27T12:27:04.473Z,84.05
2023-01-27T12:29:41.297Z,82.45
2023-01-27T12:32:18.769Z,81.96
2023-01-27T12:34:49.082Z,81.79
2023-01-27T12:37:28.090Z,80.27
2023-01-27T12:40:00.324Z,81.65
2023-01-27T12:42:47.216Z,81.92
2023-01-27T12:45:29.904Z,82.08
2023-01-27T12:48:09.145Z,82.63
2023-01-27T12:50:51.579Z,82.18
2023-01-27T12:53:20.919Z,81.80
2023-01-27T12:56:07.009Z,82.66
2023-01-27T12:58:44.575Z,81.46
2023-01-27T13:01:28.437Z,81.36
2023-01-27T13:04:01.664Z,81.55
2023-01-27T13:07:10.193Z,80.61
2023-01-27T13:09:50.646Z,80.94
2023-01-27T13:12:27.964Z,81.25
2023-01-27T13:15:19.657Z,80.62
2023-01-27T13:17:51.639Z,79.86
2023-01-27T13:20:23.017Z,80.64
2023-01-27T13:22:59.233Z,80.69
2023-01-27T13:25:34.738Z,82.42
2023-01-27T13:28:02.085Z,81.16
2023-01-27T13:30:34.275Z,81.27
2023-01-27T13:33:14.140Z,81.67
2023-01-27T13:36:09.507Z,82.30
2023-01-27T13:38:59.712Z,81.82
2023-01-27T13:41:43.897Z,82.35
2023-01-27T13:45:03.751Z,81.82
2023-01-27T13:47:40.153Z,83.26
2023-01-27T13:50:21.786Z,82.72
2023-01-27T13:52:53.295Z,82.89
2023-01-27T13:55:40.434Z,83.62
2023-01-27T13:58:25.251Z,83.73
2023-01-27T14:01:05.157Z,82.22
2023-01-27T14:03:38.330Z,82.35
2023-01-27T14:06:14.347Z,82.65
2023-01-27T14:09:10.921Z,82.68
2023-01-27T14:11:48.139Z,82.93
2023-01-27T14:14:27.998Z,84.03
2023-01-27T14:17:33.938Z,81.55
2023-01-27T14:20:01.292Z,81.00
2023-01-27T14:22:53.459Z,79.61
2023-01-27T14:25:41.351Z,78.77
2023-01-27T14:28:12.425Z,79.71
2023-01-27T14:30:42.573Z,78.59
2023-01-27T14:33:20.995Z,77.87
2023-01-27T14:36:21.530Z,77.70
2023-01-27T14:39:00.123Z,77.53
2023-01-27T14:42:00.911Z,78.83
2023-01-27T14:45:03.582Z,78.30
2023-01-27T14:47:41.907Z,79.76
2023-01-27T14:50:25.041Z,79.88
2023-01-27T14:53:13.955Z,79.41
2023-01-27T14:55:52.464Z,79.52
2023-01-27T14:58:37.005Z,79.46
2023-01-27T15:01:12.101Z,80.03
2023-01-27T15:04:11.991Z,80.48
2023-01-27T15:06:45.241Z,79.11
2023-01-27T15:09:50.191Z,79.39
2023-01-27T15:12:24.777Z,80.95
2023-01-27T15:15:14.124Z,80.84
2023-01-27T15:18:05.999Z,80.50
2023-01-27T15:21:04.541Z,80.98
2023-01-27T15:23:43.896Z,80.23
2023-01-27T15:26:12.831Z,80.13
2023-01-27T15:28:42.151Z,81.53
2023-01-27T15:31:12.419Z,82.01
2023-01-27T15:34:10.179Z,82.81
2023-01-27T15:36:40.174Z,83.17
2023-01-27T15:39:10.334Z,82.60
2023-01-27T15:41:50.435Z,81.87
2023-01-27T15:44:25.065Z,82.01
2023-01-27T15:46:53.059Z,81.92
2023-01-27T15:49:36.222Z,81.60
2023-01-27T15:52:26.356Z,82.63
2023-01-27T15:54:55.709Z,82.26
2023-01-27T15:57:29.695Z,83.21
2023-01-27T16:00:07.653Z,82.71
2023-01-27T16:02:45.307Z,83.17
2023-01-27T16:05:21.419Z,82.65
2023-01-27T16:07:53.336Z,82.51
2023-01-27T16:10:23.033Z,82.80
2023-01-27T16:12:52.455Z,83.77
2023-01-27T16:15:22.713Z,83.70
2023-01-27T16:18:22.510Z,82.85
2023-01-27T16:20:57.460Z,83.16
2023-01-27T16:24:03.151Z,83.36
2023-01-27T16:26:32.767Z,83.69
2023-01-27T16:29:46.795Z,83.20
2023-01-27T16:32:19.675Z,82.38
2023-01-27T16:34:53.583Z,81.96
2023-01-27T16:37:29.468Z,81.99
2023-01-27T16:40:08.449Z,81.71
2023-01-27T16:42:45.375Z,81.62
2023-01-27T16:45:21.096Z,81.66
2023-01-27T16:48:06.534Z,81.58
2023-01-27T16:50:40.323Z,81.28
2023-01-27T16:53:23.192Z,81.90
2023-01-27T16:56:05.743Z,81.10
2023-01-27T16:58:45.553Z,81.06
2023-01-27T17:01:20.699Z,80.50
2023-01-27T17:03:48.140Z,80.54
2023-01-27T17:06:16.880Z,81.76
2023-01-27T17:08:48.569Z,81.53
2023-01-27T17:11:29.165Z,81.87
2023-01-27T17:13:57.583Z,82.11
2023-01-27T17:16:31.701Z,82.35
2023-01-27T17:19:07.836Z,83.11
2023-01-27T17:21:41.534Z,84.18
2023-01-27T17:24:18.490Z,82.53
2023-01-27T17:26:49.244Z,82.56
2023-01-27T17:29:21.846Z,81.71
2023-01-27T17:31:49.856Z,81.94
2023-01-27T17:34:19.424Z,81.70
2023-01-27T17:37:15.187Z,81.24
2023-01-27T17:39:43.624Z,80.69
2023-01-27T17:42:16.860Z,81.06
2023-01-27T17:44:45.660Z,81.17
2023-01-27T17:47:15.237Z,81.23
2023-01-27T17:49:43.308Z,80.92
2023-01-27T17:52:18.618Z,80.92
2023-01-27T17:54:46.976Z,80.68
2023-01-27T17:57:32.558Z,81.06
2023-01-27T18:00:04.619Z,81.15
2023-01-27T18:02:47.573Z,81.50
2023-01-27T18:05:18.830Z,81.58
2023-01-27T18:07:46.311Z,81.58
2023-01-27T18:10:34.908Z,81.22
2023-01-27T18:13:18.503Z,80.78
2023-01-27T18:16:02.085Z,80.64
2023-01-27T18:18:31.841Z,80.83
2023-01-27T18:21:01.967Z,80.80
2023-01-27T18:23:52.688Z,80.51
2023-01-27T18:26:27.270Z,80.59
2023-01-27T18:28:57.596Z,80.31
2023-01-27T18:31:31.114Z,80.35
2023-01-27T18:34:14.021Z,80.52
2023-01-27T18:37:22.118Z,81.45
2023-01-27T18:39:49.856Z,81.32
2023-01-27T18:42:18.499Z,81.52
2023-01-27T18:44:45.712Z,81.66
2023-01-27T18:47:19.303Z,81.57
2023-01-27T18:49:53.380Z,81.85
2023-01-27T18:52:20.664Z,81.79
2023-01-27T18:54:48.348Z,81.20
2023-01-27T18:57:15.559Z,80.92
2023-01-27T18:59:43.175Z,81.06
2023-01-27T19:02:15.835Z,81.36
2023-01-27T19:04:43.749Z,81.25
2023-01-27T19:07:16.716Z,80.89
2023-01-27T19:09:45.478Z,80.68
2023-01-27T19:12:12.854Z,81.02
2023-01-27T19:14:41.975Z,81.02
2023-01-27T19:17:22.634Z,80.38
2023-01-27T19:19:49.997Z,80.15
2023-01-27T19:22:19.540Z,80.40
2023-01-27T19:24:46.795Z,80.77
2023-01-27T19:27:15.255Z,81.70
2023-01-27T19:29:42.804Z,82.22
2023-01-27T19:32:15.887Z,82.24
2023-01-27T19:34:43.388Z,82.45
2023-01-27T19:37:20.091Z,82.60
2023-01-27T19:39:48.985Z,82.24
2023-01-27T19:42:16.364Z,82.51
2023-01-27T19:44:43.586Z,82.96
2023-01-27T19:47:12.838Z,83.47
2023-01-27T19:49:40.491Z,82.81
2023-01-27T19:52:07.710Z,82.56
2023-01-27T19:54:35.416Z,82.68
2023-01-27T19:57:02.580Z,83.27
2023-01-27T19:59:29.750Z,82.81
2023-01-27T20:01:57.315Z,82.53
2023-01-27T20:04:26.542Z,82.78
2023-01-27T20:06:53.808Z,82.89
2023-01-27T20:09:20.913Z,82.97
2023-01-27T20:11:48.422Z,82.68
2023-01-27T20:14:23.750Z,82.43
2023-01-27T20:16:51.500Z,81.79
2023-01-27T20:19:18.843Z,82.10
2023-01-27T20:21:46.801Z,81.86
2023-01-27T20:24:18.487Z,81.91
2023-01-27T20:26:45.979Z,81.33
2023-01-27T20:29:29.905Z,81.38
2023-01-27T20:31:57.681Z,81.58
2023-01-27T20:34:25.221Z,80.85
2023-01-27T20:36:52.412Z,81.02
2023-01-27T20:39:19.614Z,81.23
2023-01-27T20:41:50.227Z,80.97
2023-01-27T20:44:18.255Z,79.93
2023-01-27T20:46:45.449Z,80.22
2023-01-27T20:49:12.838Z,80.28
2023-01-27T20:51:39.969Z,80.32
2023-01-27T20:54:07.449Z,81.08
2023-01-27T20:56:35.154Z,80.43
2023-01-27T20:59:02.239Z,80.26
2023-01-27T21:01:29.433Z,79.62
2023-01-27T21:03:56.912Z,79.96
2023-01-27T21:06:24.060Z,79.79
2023-01-27T21:08:51.188Z,79.70
2023-01-27T21:11:21.219Z,79.90
2023-01-27T21:13:49.822Z,79.44
2023-01-27T21:16:17.197Z,79.77
2023-01-27T21:18:45.080Z,79.19
2023-01-27T21:21:25.773Z,79.63
2023-01-27T21:23:57.201Z,79.57
2023-01-27T21:26:24.426Z,79.54
2023-01-27T21:28:51.888Z,80.08
2023-01-27T21:31:21.211Z,80.10
2023-01-27T21:33:50.066Z,80.16
2023-01-27T21:36:18.233Z,79.45
2023-01-27T21:38:45.711Z,80.12
2023-01-27T21:41:38.909Z,79.85
2023-01-27T21:44:32.755Z,79.75
2023-01-27T21:47:00.020Z,79.71
2023-01-27T21:49:27.483Z,79.25
2023-01-27T21:51:55.206Z,78.81
2023-01-27T21:54:22.461Z,79.47
2023-01-27T21:56:49.942Z,80.23
2023-01-27T21:59:17.106Z,80.58
2023-01-27T22:01:44.363Z,80.11
2023-01-27T22:04:11.879Z,80.02
2023-01-27T22:06:39.075Z,81.33
2023-01-27T22:09:06.131Z,81.38
2023-01-27T22:11:34.917Z,81.05
2023-01-27T22:14:01.959Z,81.08
2023-01-27T22:16:29.076Z,81.26
2023-01-27T22:18:56.510Z,81.25
2023-01-27T22:21:23.613Z,81.08
2023-01-27T22:23:50.952Z,80.56
2023-01-27T22:26:20.477Z,80.84
2023-01-27T22:28:48.471Z,80.85
2023-01-27T22:31:15.613Z,80.96
2023-01-27T22:33:43.009Z,81.83
2023-01-27T22:36:10.103Z,81.58
2023-01-27T22:38:38.192Z,81.87
2023-01-27T22:41:05.767Z,81.28
2023-01-27T22:43:32.867Z,81.46
2023-01-27T22:46:02.190Z,81.42
2023-01-27T22:48:30.131Z,81.17
2023-01-27T22:50:57.427Z,81.26
2023-01-27T22:53:24.520Z,81.18
2023-01-27T22:56:02.518Z,81.08
2023-01-27T22:58:29.968Z,81.45
2023-01-27T23:00:57.781Z,81.79
2023-01-27T23:03:25.145Z,81.59
2023-01-27T23:05:52.253Z,82.12
2023-01-27T23:08:20.729Z,82.37
2023-01-27T23:10:48.388Z,82.37
2023-01-27T23:13:15.822Z,82.47
2023-01-27T23:15:43.211Z,82.66
2023-01-27T23:18:11.441Z,82.07
2023-01-27T23:20:39.886Z,82.29
2023-01-27T23:23:08.283Z,82.93
2023-01-27T23:25:36.531Z,83.83
2023-01-27T23:28:03.635Z,83.37
2023-01-27T23:30:31.161Z,83.83
2023-01-27T23:32:58.338Z,83.95
2023-01-27T23:35:25.483Z,83.92
2023-01-27T23:37:52.856Z,84.35
2023-01-27T23:40:20.625Z,83.95
2023-01-27T23:42:47.684Z,83.84
2023-01-27T23:45:15.427Z,83.98
2023-01-27T23:47:42.718Z,83.99
2023-01-27T23:50:10.471Z,83.95
2023-01-27T23:52:37.930Z,83.86
2023-01-27T23:55:05.313Z,84.12
2023-01-27T23:57:32.397Z,84.41
2023-01-27T23:59:59.862Z,84.60
